createdAt,value
2019-03-26T00:00:43.515Z,48.00
2019-03-26T00:01:43.510Z,44.00
2019-03-26T00:03:36.914Z,56.00
2019-03-26T00:04:36.609Z,176.00
2019-03-26T00:06:30.219Z,268.00
2019-03-26T00:07:30.176Z,284.00
2019-03-26T00:09:23.344Z,264.00
2019-03-26T00:10:23.317Z,260.00
2019-03-26T00:12:16.849Z,280.00
2019-03-26T00:13:16.622Z,276.00
2019-03-26T00:15:10.016Z,276.00
2019-03-26T00:16:09.947Z,256.00
2019-03-26T00:18:03.709Z,260.00
2019-03-26T00:19:03.321Z,284.00
2019-03-26T00:20:56.889Z,308.00
2019-03-26T00:21:56.908Z,308.00
2019-03-26T00:23:50.436Z,332.00
2019-03-26T00:24:50.182Z,328.00
2019-03-26T00:26:43.590Z,300.00
2019-03-26T00:27:43.541Z,228.00
2019-03-26T00:29:37.109Z,236.00
2019-03-26T00:30:36.616Z,216.00
2019-03-26T00:32:30.229Z,208.00
2019-03-26T00:33:36.424Z,208.00
2019-03-26T00:35:23.493Z,224.00
2019-03-26T00:36:23.540Z,272.00
2019-03-26T00:38:16.901Z,204.00
2019-03-26T00:39:16.912Z,304.00
2019-03-26T00:41:10.148Z,244.00
2019-03-26T00:42:09.955Z,280.00
2019-03-26T00:44:03.541Z,336.00
2019-03-26T00:45:03.583Z,288.00
2019-03-26T00:46:57.084Z,408.00
2019-03-26T00:47:56.644Z,380.00
2019-03-26T00:49:50.208Z,388.00
2019-03-26T00:50:50.000Z,392.00
2019-03-26T00:52:43.510Z,384.00
2019-03-26T00:53:43.297Z,420.00
2019-03-26T00:55:36.644Z,396.00
2019-03-26T00:56:36.906Z,388.00
2019-03-26T00:58:30.198Z,392.00
2019-03-26T00:59:30.216Z,388.00
2019-03-26T01:01:23.546Z,404.00
2019-03-26T01:02:23.299Z,400.00
2019-03-26T01:04:17.122Z,396.00
2019-03-26T01:05:16.619Z,404.00
2019-03-26T01:07:10.226Z,388.00
2019-03-26T01:08:10.213Z,376.00
2019-03-26T01:10:03.745Z,388.00
2019-03-26T01:11:03.300Z,400.00
2019-03-26T01:12:56.949Z,432.00
2019-03-26T01:13:56.653Z,444.00
2019-03-26T01:15:50.188Z,444.00
2019-03-26T01:16:49.996Z,464.00
2019-03-26T01:18:43.372Z,472.00
2019-03-26T01:19:43.350Z,488.00
2019-03-26T01:21:37.177Z,468.00
2019-03-26T01:22:36.942Z,456.00
2019-03-26T01:24:30.301Z,424.00
2019-03-26T01:25:30.047Z,376.00
2019-03-26T01:27:23.836Z,256.00
2019-03-26T01:28:23.607Z,284.00
2019-03-26T01:30:16.946Z,240.00
2019-03-26T01:31:16.730Z,276.00
2019-03-26T01:33:10.293Z,484.00
2019-03-26T01:34:10.277Z,500.00
2019-03-26T01:36:03.399Z,512.00
2019-03-26T01:37:03.614Z,516.00
2019-03-26T01:38:56.933Z,516.00
2019-03-26T01:39:56.984Z,528.00
2019-03-26T01:41:50.067Z,524.00
2019-03-26T01:42:50.330Z,540.00
2019-03-26T01:44:43.918Z,548.00
2019-03-26T01:45:43.641Z,548.00
2019-03-26T01:47:36.863Z,524.00
2019-03-26T01:48:36.748Z,508.00
2019-03-26T01:50:30.302Z,536.00
2019-03-26T01:51:30.113Z,532.00
2019-03-26T01:53:23.487Z,516.00
2019-03-26T01:54:23.722Z,500.00
2019-03-26T01:56:17.023Z,500.00
2019-03-26T01:57:17.044Z,504.00
2019-03-26T01:59:10.128Z,536.00
2019-03-26T02:00:10.116Z,532.00
2019-03-26T02:02:05.512Z,532.00
2019-03-26T02:03:04.621Z,524.00
2019-03-26T02:05:00.228Z,516.00
2019-03-26T02:05:57.950Z,508.00
2019-03-26T02:07:51.489Z,512.00
2019-03-26T02:08:51.063Z,512.00
2019-03-26T02:10:44.117Z,360.00
2019-03-26T02:11:43.879Z,360.00
2019-03-26T02:13:37.726Z,364.00
2019-03-26T02:14:37.209Z,356.00
2019-03-26T02:16:30.341Z,364.00
2019-03-26T02:17:30.336Z,356.00
2019-03-26T02:19:23.362Z,324.00
2019-03-26T02:20:22.965Z,316.00
2019-03-26T02:22:16.636Z,316.00
2019-03-26T02:23:16.493Z,304.00
2019-03-26T02:25:10.017Z,308.00
2019-03-26T02:26:09.832Z,148.00
2019-03-26T02:28:03.229Z,324.00
2019-03-26T02:29:02.937Z,320.00
2019-03-26T02:30:56.781Z,332.00
2019-03-26T02:31:56.551Z,340.00
2019-03-26T02:33:49.978Z,324.00
2019-03-26T02:34:49.757Z,268.00
2019-03-26T02:36:43.432Z,104.00
2019-03-26T02:37:43.001Z,108.00
2019-03-26T02:39:36.585Z,328.00
2019-03-26T02:40:36.343Z,328.00
2019-03-26T02:42:29.660Z,116.00
2019-03-26T02:43:29.629Z,292.00
2019-03-26T02:45:22.606Z,316.00
2019-03-26T02:46:22.503Z,304.00
2019-03-26T02:48:16.669Z,300.00
2019-03-26T02:49:15.834Z,296.00
2019-03-26T02:51:09.446Z,284.00
2019-03-26T02:52:09.169Z,280.00
2019-03-26T02:54:02.774Z,280.00
2019-03-26T02:55:02.544Z,368.00
2019-03-26T02:56:56.106Z,268.00
2019-03-26T02:57:56.078Z,280.00
2019-03-26T03:01:21.814Z,236.00
2019-03-26T03:02:21.220Z,280.00
2019-03-26T03:04:14.917Z,280.00
2019-03-26T03:05:14.572Z,288.00
2019-03-26T03:07:08.129Z,268.00
2019-03-26T03:08:08.120Z,264.00
2019-03-26T03:10:01.241Z,260.00
2019-03-26T03:11:01.529Z,244.00
2019-03-26T03:12:56.429Z,240.00
2019-03-26T03:13:54.859Z,236.00
2019-03-26T03:15:48.148Z,200.00
2019-03-26T03:16:47.933Z,216.00
2019-03-26T03:18:41.562Z,200.00
2019-03-26T03:19:41.485Z,200.00
2019-03-26T03:21:34.604Z,192.00
2019-03-26T03:22:34.591Z,192.00
2019-03-26T03:24:28.271Z,188.00
2019-03-26T03:25:27.926Z,184.00
2019-03-26T03:27:21.589Z,176.00
2019-03-26T03:28:21.321Z,180.00
2019-03-26T03:30:14.835Z,172.00
2019-03-26T03:31:14.915Z,172.00
2019-03-26T03:33:20.938Z,168.00
2019-03-26T03:34:08.225Z,172.00
2019-03-26T03:36:14.601Z,168.00
2019-03-26T03:37:01.500Z,172.00
2019-03-26T03:38:54.897Z,160.00
2019-03-26T03:39:54.845Z,156.00
2019-03-26T03:41:48.444Z,160.00
2019-03-26T03:42:48.308Z,160.00
2019-03-26T03:44:00.922Z,152.00
2019-03-26T03:45:02.516Z,148.00
2019-03-26T03:45:50.989Z,152.00
2019-03-26T03:46:48.135Z,152.00
2019-03-26T03:47:48.196Z,148.00
2019-03-26T03:48:48.134Z,140.00
2019-03-26T03:49:47.874Z,120.00
2019-03-26T03:50:47.866Z,120.00
2019-03-26T03:51:47.853Z,120.00
2019-03-26T03:52:47.857Z,120.00
2019-03-26T03:53:48.124Z,124.00
2019-03-26T03:54:48.095Z,124.00
2019-03-26T03:55:47.812Z,116.00
2019-03-26T03:56:47.843Z,116.00
2019-03-26T03:57:47.842Z,116.00
2019-03-26T03:58:47.825Z,112.00
2019-03-26T03:59:48.043Z,104.00
2019-03-26T04:00:48.007Z,100.00
2019-03-26T04:01:47.989Z,96.00
2019-03-26T04:02:47.777Z,96.00
2019-03-26T04:03:48.004Z,92.00
2019-03-26T04:04:47.999Z,96.00
2019-03-26T04:05:47.990Z,92.00
2019-03-26T04:06:47.713Z,92.00
2019-03-26T04:07:47.992Z,88.00
2019-03-26T04:08:47.948Z,84.00
2019-03-26T04:09:47.907Z,92.00
2019-03-26T04:10:47.662Z,92.00
2019-03-26T04:11:47.676Z,84.00
2019-03-26T04:12:47.869Z,52.00
2019-03-26T04:13:47.643Z,92.00
2019-03-26T04:14:47.860Z,96.00
2019-03-26T04:15:47.884Z,84.00
2019-03-26T04:16:47.925Z,76.00
2019-03-26T04:17:47.701Z,76.00
2019-03-26T04:18:47.607Z,72.00
2019-03-26T04:19:47.607Z,76.00
2019-03-26T04:20:47.577Z,76.00
2019-03-26T04:21:47.549Z,76.00
2019-03-26T04:22:47.618Z,76.00
2019-03-26T04:23:47.525Z,48.00
2019-03-26T04:24:47.537Z,80.00
2019-03-26T04:25:47.801Z,48.00
2019-03-26T04:26:47.801Z,88.00
2019-03-26T04:27:47.531Z,52.00
2019-03-26T04:28:47.748Z,84.00
2019-03-26T04:29:47.700Z,84.00
2019-03-26T04:30:47.729Z,88.00
2019-03-26T04:31:47.499Z,64.00
2019-03-26T04:32:47.698Z,80.00
2019-03-26T04:33:47.692Z,84.00
2019-03-26T04:34:47.431Z,52.00
2019-03-26T04:35:47.447Z,40.00
2019-03-26T04:36:47.398Z,48.00
2019-03-26T04:37:47.678Z,44.00
2019-03-26T04:38:47.744Z,72.00
2019-03-26T04:39:47.638Z,64.00
2019-03-26T04:40:47.583Z,48.00
2019-03-26T04:41:47.684Z,76.00
2019-03-26T04:42:47.337Z,76.00
2019-03-26T04:43:47.979Z,116.00
2019-03-26T04:44:47.403Z,204.00
2019-03-26T04:45:47.588Z,216.00
2019-03-26T04:46:47.295Z,220.00
2019-03-26T04:47:47.291Z,220.00
2019-03-26T04:48:47.565Z,224.00
2019-03-26T04:49:47.531Z,228.00
2019-03-26T04:50:47.307Z,224.00
2019-03-26T04:51:47.507Z,228.00
2019-03-26T04:52:47.483Z,236.00
2019-03-26T04:53:47.506Z,224.00
2019-03-26T04:54:47.516Z,220.00
2019-03-26T04:55:47.450Z,240.00
2019-03-26T04:56:47.242Z,232.00
2019-03-26T04:57:47.458Z,216.00
2019-03-26T04:58:47.185Z,216.00
2019-03-26T04:59:48.125Z,240.00
2019-03-26T05:00:47.238Z,236.00
2019-03-26T05:01:47.429Z,236.00
2019-03-26T05:02:47.242Z,224.00
2019-03-26T05:03:47.126Z,216.00
2019-03-26T05:04:47.161Z,212.00
2019-03-26T05:05:47.366Z,212.00
2019-03-26T05:06:47.121Z,212.00
2019-03-26T05:07:47.392Z,212.00
2019-03-26T05:08:47.109Z,212.00
2019-03-26T05:09:47.063Z,208.00
2019-03-26T05:10:49.253Z,208.00
2019-03-26T05:11:47.090Z,204.00
2019-03-26T05:12:47.034Z,208.00
2019-03-26T05:13:47.030Z,208.00
2019-03-26T05:14:47.018Z,196.00
2019-03-26T05:15:47.005Z,204.00
2019-03-26T05:16:47.043Z,204.00
2019-03-26T05:17:47.245Z,212.00
2019-03-26T05:18:47.207Z,212.00
2019-03-26T05:19:47.242Z,216.00
2019-03-26T05:20:47.221Z,220.00
2019-03-26T05:21:47.178Z,216.00
2019-03-26T05:22:47.258Z,216.00
2019-03-26T05:23:46.971Z,216.00
2019-03-26T05:24:47.150Z,220.00
2019-03-26T05:25:47.196Z,220.00
2019-03-26T05:26:47.220Z,208.00
2019-03-26T05:27:46.928Z,212.00
2019-03-26T05:28:46.944Z,204.00
2019-03-26T05:29:47.142Z,200.00
2019-03-26T05:30:47.135Z,192.00
2019-03-26T05:31:47.102Z,192.00
2019-03-26T05:32:46.843Z,192.00
2019-03-26T05:33:46.855Z,196.00
2019-03-26T05:34:47.064Z,192.00
2019-03-26T05:35:46.812Z,208.00
2019-03-26T05:36:51.656Z,208.00
2019-03-26T05:37:46.794Z,196.00
2019-03-26T05:38:47.055Z,208.00
2019-03-26T05:39:46.777Z,212.00
2019-03-26T05:40:46.992Z,212.00
2019-03-26T05:41:46.982Z,200.00
2019-03-26T05:42:47.040Z,212.00
2019-03-26T05:43:47.040Z,212.00
2019-03-26T05:44:47.016Z,212.00
2019-03-26T05:45:46.704Z,212.00
2019-03-26T05:46:46.963Z,200.00
2019-03-26T05:47:46.987Z,196.00
2019-03-26T05:48:46.939Z,196.00
2019-03-26T05:49:46.903Z,196.00
2019-03-26T05:50:46.693Z,200.00
2019-03-26T05:51:46.690Z,196.00
2019-03-26T05:52:46.685Z,196.00
2019-03-26T05:53:46.671Z,192.00
2019-03-26T05:54:47.661Z,192.00
2019-03-26T05:55:46.845Z,192.00
2019-03-26T05:56:46.845Z,192.00
2019-03-26T05:57:46.628Z,196.00
2019-03-26T05:58:46.632Z,208.00
2019-03-26T05:59:46.659Z,204.00
2019-03-26T06:00:46.892Z,204.00
2019-03-26T06:01:46.777Z,192.00
2019-03-26T06:02:46.539Z,192.00
2019-03-26T06:03:46.899Z,200.00
2019-03-26T06:04:46.562Z,200.00
2019-03-26T06:05:46.545Z,208.00
2019-03-26T06:06:46.764Z,208.00
2019-03-26T06:07:47.833Z,192.00
2019-03-26T06:08:46.485Z,192.00
2019-03-26T06:09:46.700Z,200.00
2019-03-26T06:10:46.722Z,200.00
2019-03-26T06:11:46.709Z,208.00
2019-03-26T06:12:46.435Z,212.00
2019-03-26T06:15:18.795Z,200.00
2019-03-26T06:16:18.776Z,196.00
2019-03-26T06:18:11.836Z,212.00
2019-03-26T06:19:11.855Z,216.00
2019-03-26T06:21:05.369Z,220.00
2019-03-26T06:22:05.601Z,220.00
2019-03-26T06:24:09.464Z,208.00
2019-03-26T06:26:35.956Z,208.00
2019-03-26T06:27:34.930Z,208.00
2019-03-26T06:29:28.227Z,220.00
2019-03-26T06:30:28.128Z,220.00
2019-03-26T06:31:28.312Z,224.00
2019-03-26T06:32:28.228Z,216.00
2019-03-26T06:33:29.074Z,216.00
2019-03-26T06:34:28.098Z,216.00
2019-03-26T06:35:28.361Z,216.00
2019-03-26T06:36:27.868Z,220.00
2019-03-26T06:37:31.355Z,220.00
2019-03-26T06:38:28.050Z,224.00
2019-03-26T06:39:27.847Z,224.00
2019-03-26T06:40:28.068Z,216.00
2019-03-26T06:41:28.020Z,216.00
2019-03-26T06:42:28.117Z,220.00
2019-03-26T06:43:27.819Z,224.00
2019-03-26T06:44:28.017Z,224.00
2019-03-26T06:45:27.822Z,228.00
2019-03-26T06:46:28.011Z,224.00
2019-03-26T06:47:28.003Z,220.00
2019-03-26T06:48:27.985Z,216.00
2019-03-26T06:49:27.771Z,216.00
2019-03-26T06:50:27.945Z,208.00
2019-03-26T06:51:27.723Z,208.00
2019-03-26T06:52:28.198Z,204.00
2019-03-26T06:53:29.715Z,208.00
2019-03-26T06:54:31.637Z,204.00
2019-03-26T06:55:32.615Z,204.00
2019-03-26T06:56:27.909Z,204.00
2019-03-26T06:57:35.489Z,208.00
2019-03-26T06:58:27.669Z,212.00
2019-03-26T06:59:28.150Z,212.00
2019-03-26T07:00:27.700Z,208.00
2019-03-26T07:01:28.214Z,208.00
2019-03-26T07:02:28.392Z,208.00
2019-03-26T07:03:34.413Z,208.00
2019-03-26T07:04:28.016Z,200.00
2019-03-26T07:05:27.548Z,204.00
2019-03-26T07:06:27.599Z,204.00
2019-03-26T07:07:31.786Z,200.00
2019-03-26T07:08:29.594Z,200.00
2019-03-26T07:09:27.773Z,200.00
2019-03-26T07:10:27.497Z,204.00
2019-03-26T07:11:27.527Z,204.00
2019-03-26T07:12:27.705Z,204.00
2019-03-26T07:13:27.465Z,200.00
2019-03-26T07:14:27.482Z,204.00
2019-03-26T07:15:27.741Z,196.00
2019-03-26T07:16:27.673Z,196.00
2019-03-26T07:17:27.690Z,204.00
2019-03-26T07:18:27.686Z,204.00
2019-03-26T07:19:27.796Z,204.00
2019-03-26T07:20:30.893Z,204.00
2019-03-26T07:21:27.654Z,200.00
2019-03-26T07:22:28.725Z,200.00
2019-03-26T07:23:27.407Z,196.00
2019-03-26T07:24:27.648Z,192.00
2019-03-26T07:25:27.618Z,192.00
2019-03-26T07:26:27.578Z,188.00
2019-03-26T07:27:27.661Z,188.00
2019-03-26T07:28:27.324Z,184.00
2019-03-26T07:29:27.541Z,180.00
2019-03-26T07:30:27.294Z,188.00
2019-03-26T07:31:27.547Z,188.00
2019-03-26T07:32:27.511Z,188.00
2019-03-26T07:33:27.524Z,184.00
2019-03-26T07:34:27.512Z,188.00
2019-03-26T07:35:27.562Z,188.00
2019-03-26T07:36:27.237Z,188.00
2019-03-26T07:37:28.641Z,188.00
2019-03-26T07:38:34.948Z,188.00
2019-03-26T07:39:29.034Z,184.00
2019-03-26T07:40:28.591Z,188.00
2019-03-26T07:41:27.207Z,184.00
2019-03-26T07:42:27.468Z,184.00
2019-03-26T07:43:27.191Z,188.00
2019-03-26T07:44:27.696Z,184.00
2019-03-26T07:47:01.266Z,188.00
2019-03-26T07:48:00.286Z,188.00
2019-03-26T07:49:53.063Z,184.00
2019-03-26T07:50:53.037Z,184.00
2019-03-26T07:52:46.608Z,184.00
2019-03-26T07:53:46.475Z,184.00
2019-03-26T07:55:39.992Z,184.00
2019-03-26T07:56:40.001Z,184.00
2019-03-26T07:59:33.652Z,184.00
2019-03-26T08:02:05.264Z,184.00
2019-03-26T08:03:05.271Z,192.00
2019-03-26T08:04:59.144Z,192.00
2019-03-26T08:05:58.609Z,192.00
2019-03-26T08:07:58.665Z,192.00
2019-03-26T08:08:57.372Z,188.00
2019-03-26T08:10:50.951Z,184.00
2019-03-26T08:11:50.497Z,188.00
2019-03-26T08:13:45.051Z,188.00
2019-03-26T08:14:43.894Z,184.00
2019-03-26T08:16:37.740Z,180.00
2019-03-26T08:17:37.282Z,180.00
2019-03-26T08:19:31.803Z,176.00
2019-03-26T08:20:31.777Z,176.00
2019-03-26T08:22:25.281Z,180.00
2019-03-26T08:23:24.901Z,180.00
2019-03-26T08:25:18.477Z,180.00
2019-03-26T08:26:18.207Z,180.00
2019-03-26T08:28:12.402Z,180.00
2019-03-26T08:29:11.575Z,180.00
2019-03-26T08:31:04.875Z,180.00
2019-03-26T08:32:05.152Z,180.00
2019-03-26T08:33:58.395Z,180.00
2019-03-26T08:34:58.440Z,180.00
2019-03-26T08:36:51.811Z,184.00
2019-03-26T08:37:51.580Z,184.00
2019-03-26T08:38:51.818Z,184.00
2019-03-26T08:39:51.564Z,180.00
2019-03-26T08:40:51.509Z,184.00
2019-03-26T08:41:51.538Z,184.00
2019-03-26T08:42:51.725Z,184.00
2019-03-26T08:43:51.512Z,184.00
2019-03-26T08:44:51.511Z,188.00
2019-03-26T08:45:51.462Z,184.00
2019-03-26T08:46:51.688Z,184.00
2019-03-26T08:47:51.600Z,188.00
2019-03-26T08:48:51.486Z,188.00
2019-03-26T08:49:51.662Z,188.00
2019-03-26T08:50:51.677Z,188.00
2019-03-26T08:51:51.434Z,184.00
2019-03-26T08:52:51.655Z,184.00
2019-03-26T08:53:51.652Z,184.00
2019-03-26T08:54:51.435Z,184.00
2019-03-26T08:55:51.618Z,184.00
2019-03-26T08:56:51.729Z,184.00
2019-03-26T08:57:51.595Z,184.00
2019-03-26T08:58:51.620Z,180.00
2019-03-26T08:59:51.557Z,180.00
2019-03-26T09:00:52.219Z,180.00
2019-03-26T09:01:51.307Z,180.00
2019-03-26T09:02:51.299Z,172.00
2019-03-26T09:03:51.547Z,172.00
2019-03-26T09:04:51.532Z,20.00
2019-03-26T09:05:51.310Z,176.00
2019-03-26T09:06:53.239Z,180.00
2019-03-26T09:07:51.992Z,176.00
2019-03-26T09:08:51.500Z,176.00
2019-03-26T09:09:51.646Z,180.00
2019-03-26T09:10:52.219Z,180.00
2019-03-26T09:11:51.449Z,180.00
2019-03-26T09:12:56.851Z,180.00
2019-03-26T09:13:51.227Z,176.00
2019-03-26T09:14:52.185Z,176.00
2019-03-26T09:15:51.435Z,180.00
2019-03-26T09:16:51.155Z,180.00
2019-03-26T09:17:51.376Z,176.00
2019-03-26T09:18:52.928Z,180.00
2019-03-26T09:19:51.240Z,176.00
2019-03-26T09:20:51.454Z,176.00
2019-03-26T09:21:51.144Z,180.00
2019-03-26T09:22:51.772Z,176.00
2019-03-26T09:23:51.963Z,176.00
2019-03-26T09:24:51.082Z,176.00
2019-03-26T09:25:51.338Z,176.00
2019-03-26T09:26:51.045Z,180.00
2019-03-26T09:27:58.129Z,176.00
2019-03-26T09:28:51.210Z,176.00
2019-03-26T09:29:51.071Z,172.00
2019-03-26T09:30:51.045Z,172.00
2019-03-26T09:31:50.995Z,176.00
2019-03-26T09:32:51.249Z,172.00
2019-03-26T09:33:51.302Z,172.00
2019-03-26T09:34:51.716Z,176.00
2019-03-26T09:35:51.269Z,172.00
2019-03-26T09:36:50.952Z,176.00
2019-03-26T09:39:23.524Z,172.00
2019-03-26T09:40:23.224Z,176.00
2019-03-26T09:42:16.982Z,176.00
2019-03-26T09:43:16.643Z,176.00
2019-03-26T09:44:16.822Z,172.00
2019-03-26T09:45:16.348Z,172.00
2019-03-26T09:46:16.522Z,172.00
2019-03-26T09:47:16.884Z,172.00
2019-03-26T09:48:16.291Z,168.00
2019-03-26T09:49:16.296Z,172.00
2019-03-26T09:50:16.298Z,172.00
2019-03-26T09:51:16.413Z,168.00
2019-03-26T09:52:16.346Z,168.00
2019-03-26T09:53:16.789Z,168.00
2019-03-26T09:54:16.480Z,168.00
2019-03-26T09:55:16.470Z,164.00
2019-03-26T09:56:28.104Z,168.00
2019-03-26T09:57:16.429Z,164.00
2019-03-26T09:58:16.473Z,168.00
2019-03-26T09:59:16.445Z,164.00
2019-03-26T10:00:16.437Z,168.00
2019-03-26T10:01:16.414Z,168.00
2019-03-26T10:02:16.196Z,168.00
2019-03-26T10:03:16.156Z,164.00
2019-03-26T10:04:17.003Z,168.00
2019-03-26T10:05:16.336Z,168.00
2019-03-26T10:06:23.271Z,164.00
2019-03-26T10:07:21.370Z,164.00
2019-03-26T10:08:17.832Z,164.00
2019-03-26T10:09:17.041Z,168.00
2019-03-26T10:10:16.366Z,168.00
2019-03-26T10:11:24.151Z,168.00
2019-03-26T10:12:16.075Z,168.00
2019-03-26T10:13:16.071Z,164.00
2019-03-26T10:14:16.308Z,164.00
2019-03-26T10:15:16.262Z,168.00
2019-03-26T10:16:16.272Z,168.00
2019-03-26T10:17:15.994Z,168.00
2019-03-26T10:18:15.988Z,168.00
2019-03-26T10:19:17.109Z,168.00
2019-03-26T10:20:16.241Z,164.00
2019-03-26T10:21:16.230Z,168.00
2019-03-26T10:22:15.943Z,168.00
2019-03-26T10:23:16.745Z,164.00
2019-03-26T10:24:16.213Z,164.00
2019-03-26T10:25:16.162Z,164.00
2019-03-26T10:27:16.184Z,164.00
2019-03-26T10:28:15.924Z,164.00
2019-03-26T10:29:29.551Z,164.00
2019-03-26T10:30:16.142Z,164.00
2019-03-26T10:31:16.138Z,160.00
2019-03-26T10:32:15.881Z,164.00
2019-03-26T10:33:16.067Z,164.00
2019-03-26T10:34:15.883Z,160.00
2019-03-26T10:35:15.813Z,160.00
2019-03-26T10:36:15.838Z,160.00
2019-03-26T10:37:15.838Z,156.00
2019-03-26T10:38:15.806Z,156.00
2019-03-26T10:39:15.795Z,160.00
2019-03-26T10:40:15.786Z,160.00
2019-03-26T10:41:18.569Z,160.00
2019-03-26T10:42:15.996Z,164.00
2019-03-26T10:43:15.775Z,160.00
2019-03-26T10:44:15.973Z,160.00
2019-03-26T10:45:15.938Z,160.00
2019-03-26T10:46:15.952Z,156.00
2019-03-26T10:47:15.690Z,160.00
2019-03-26T10:48:15.725Z,160.00
2019-03-26T10:49:15.665Z,160.00
2019-03-26T10:50:15.897Z,160.00
2019-03-26T10:51:15.885Z,156.00
2019-03-26T10:52:15.896Z,156.00
2019-03-26T10:53:15.626Z,160.00
2019-03-26T10:54:15.853Z,156.00
2019-03-26T10:55:15.609Z,156.00
2019-03-26T10:56:15.618Z,152.00
2019-03-26T10:57:15.619Z,156.00
2019-03-26T10:58:15.878Z,156.00
2019-03-26T10:59:15.604Z,156.00
2019-03-26T11:00:15.554Z,156.00
2019-03-26T11:01:15.604Z,152.00
2019-03-26T11:02:15.764Z,152.00
2019-03-26T11:03:15.757Z,152.00
2019-03-26T11:04:15.568Z,156.00
2019-03-26T11:05:15.768Z,152.00
2019-03-26T11:06:15.758Z,152.00
2019-03-26T11:07:15.528Z,152.00
2019-03-26T11:08:15.480Z,156.00
2019-03-26T11:09:24.103Z,152.00
2019-03-26T11:10:15.480Z,152.00
2019-03-26T11:11:15.674Z,152.00
2019-03-26T11:12:15.742Z,152.00
2019-03-26T11:13:15.437Z,152.00
2019-03-26T11:14:15.647Z,152.00
2019-03-26T11:15:15.641Z,148.00
2019-03-26T11:16:15.435Z,152.00
2019-03-26T11:17:15.423Z,148.00
2019-03-26T11:18:15.635Z,152.00
2019-03-26T11:19:15.665Z,148.00
2019-03-26T11:20:15.613Z,152.00
2019-03-26T11:21:15.386Z,152.00
2019-03-26T11:22:15.341Z,152.00
2019-03-26T11:23:15.623Z,152.00
2019-03-26T11:24:15.542Z,152.00
2019-03-26T11:25:15.558Z,156.00
2019-03-26T11:26:15.321Z,152.00
2019-03-26T11:27:15.522Z,152.00
2019-03-26T11:28:15.506Z,152.00
2019-03-26T11:29:15.313Z,152.00
2019-03-26T11:30:15.524Z,148.00
2019-03-26T11:31:15.497Z,152.00
2019-03-26T11:32:15.462Z,152.00
2019-03-26T11:33:15.458Z,152.00
2019-03-26T11:34:15.472Z,152.00
2019-03-26T11:35:15.469Z,152.00
2019-03-26T11:36:15.191Z,152.00
2019-03-26T11:37:15.450Z,148.00
2019-03-26T11:38:18.338Z,152.00
2019-03-26T11:39:15.204Z,152.00
2019-03-26T11:40:15.378Z,152.00
2019-03-26T11:41:15.369Z,152.00
2019-03-26T11:42:15.445Z,152.00
2019-03-26T11:43:15.378Z,156.00
2019-03-26T11:44:15.417Z,152.00
2019-03-26T11:45:15.110Z,152.00
2019-03-26T11:46:15.327Z,152.00
2019-03-26T11:47:15.095Z,148.00
2019-03-26T11:48:15.346Z,152.00
2019-03-26T11:49:15.290Z,152.00
2019-03-26T11:50:15.319Z,152.00
2019-03-26T11:51:15.043Z,152.00
2019-03-26T11:52:15.332Z,152.00
2019-03-26T11:53:15.268Z,152.00
2019-03-26T11:54:15.047Z,152.00
2019-03-26T11:55:15.041Z,152.00
2019-03-26T11:56:15.032Z,152.00
2019-03-26T11:57:15.237Z,152.00
2019-03-26T11:58:15.239Z,152.00
2019-03-26T11:59:15.235Z,152.00
2019-03-26T12:00:14.951Z,152.00
2019-03-26T12:01:15.235Z,152.00
2019-03-26T12:02:15.212Z,148.00
2019-03-26T12:03:15.213Z,152.00
2019-03-26T12:04:15.170Z,152.00
2019-03-26T12:05:15.196Z,148.00
2019-03-26T12:06:15.196Z,152.00
2019-03-26T12:07:14.884Z,152.00
2019-03-26T12:08:14.906Z,152.00
2019-03-26T12:09:15.166Z,152.00
2019-03-26T12:10:15.152Z,152.00
2019-03-26T12:11:14.887Z,152.00
2019-03-26T12:12:15.108Z,152.00
2019-03-26T12:13:15.115Z,148.00
2019-03-26T12:14:15.084Z,152.00
2019-03-26T12:15:15.071Z,148.00
2019-03-26T12:16:14.791Z,148.00
2019-03-26T12:17:15.143Z,152.00
2019-03-26T12:18:15.079Z,152.00
2019-03-26T12:19:14.992Z,148.00
2019-03-26T12:20:15.021Z,152.00
2019-03-26T12:21:14.977Z,152.00
2019-03-26T12:22:15.004Z,156.00
2019-03-26T12:23:14.980Z,152.00
2019-03-26T12:24:15.640Z,152.00
2019-03-26T12:25:14.986Z,152.00
2019-03-26T12:26:14.726Z,152.00
2019-03-26T12:27:14.947Z,152.00
2019-03-26T12:28:14.930Z,152.00
2019-03-26T12:29:14.924Z,152.00
2019-03-26T12:30:14.666Z,148.00
2019-03-26T12:31:14.637Z,148.00
2019-03-26T12:32:14.635Z,152.00
2019-03-26T12:33:14.627Z,152.00
2019-03-26T12:34:14.662Z,152.00
2019-03-26T12:35:14.644Z,152.00
2019-03-26T12:36:14.632Z,152.00
2019-03-26T12:37:14.814Z,152.00
2019-03-26T12:38:14.569Z,152.00
2019-03-26T12:39:14.836Z,152.00
2019-03-26T12:40:14.551Z,152.00
2019-03-26T12:41:14.579Z,152.00
2019-03-26T12:42:14.792Z,152.00
2019-03-26T12:43:14.523Z,152.00
2019-03-26T12:44:14.556Z,152.00
2019-03-26T12:45:14.509Z,152.00
2019-03-26T12:46:14.730Z,152.00
2019-03-26T12:47:14.739Z,148.00
2019-03-26T12:48:14.475Z,152.00
2019-03-26T12:49:14.734Z,148.00
2019-03-26T12:50:14.718Z,152.00
2019-03-26T12:51:14.719Z,148.00
2019-03-26T12:52:14.472Z,152.00
2019-03-26T12:53:14.717Z,152.00
2019-03-26T12:54:14.410Z,152.00
2019-03-26T12:55:14.669Z,152.00
2019-03-26T12:56:14.653Z,156.00
2019-03-26T12:57:14.378Z,152.00
2019-03-26T12:58:14.372Z,152.00
2019-03-26T12:59:14.614Z,152.00
2019-03-26T13:00:14.692Z,152.00
2019-03-26T13:01:14.368Z,152.00
2019-03-26T13:02:14.330Z,152.00
2019-03-26T13:03:14.614Z,152.00
2019-03-26T13:04:16.823Z,156.00
2019-03-26T13:05:14.564Z,152.00
2019-03-26T13:06:14.627Z,156.00
2019-03-26T13:07:14.546Z,156.00
2019-03-26T13:08:14.537Z,156.00
2019-03-26T13:09:14.544Z,156.00
2019-03-26T13:10:14.632Z,156.00
2019-03-26T13:11:16.946Z,156.00
2019-03-26T13:12:14.501Z,156.00
2019-03-26T13:13:14.255Z,152.00
2019-03-26T13:14:14.479Z,152.00
2019-03-26T13:15:14.430Z,156.00
2019-03-26T13:16:14.507Z,156.00
2019-03-26T13:17:14.432Z,152.00
2019-03-26T13:18:14.173Z,0.00
2019-03-26T13:19:14.160Z,0.00
2019-03-26T13:20:14.192Z,0.00
2019-03-26T13:21:14.430Z,0.00
2019-03-26T13:22:14.161Z,0.00
2019-03-26T13:23:14.159Z,0.00
2019-03-26T13:24:14.134Z,0.00
2019-03-26T13:25:14.115Z,0.00
2019-03-26T13:26:14.112Z,0.00
2019-03-26T13:27:14.346Z,0.00
2019-03-26T13:28:14.300Z,0.00
2019-03-26T13:29:14.095Z,0.00
2019-03-26T13:30:14.276Z,0.00
2019-03-26T13:31:14.331Z,0.00
2019-03-26T13:32:14.307Z,0.00
2019-03-26T13:33:14.042Z,0.00
2019-03-26T13:34:14.005Z,0.00
2019-03-26T13:35:14.228Z,0.00
2019-03-26T13:36:14.022Z,0.00
2019-03-26T13:37:14.195Z,0.00
2019-03-26T13:38:14.008Z,0.00
2019-03-26T13:39:14.214Z,0.00
2019-03-26T13:40:26.502Z,0.00
2019-03-26T13:41:14.190Z,0.00
2019-03-26T13:42:14.192Z,0.00
2019-03-26T13:43:14.223Z,0.00
2019-03-26T13:44:14.218Z,0.00
2019-03-26T13:45:14.146Z,0.00
2019-03-26T13:46:13.895Z,0.00
2019-03-26T13:47:14.172Z,0.00
2019-03-26T13:48:13.900Z,0.00
2019-03-26T13:49:13.901Z,0.00
2019-03-26T13:50:13.854Z,0.00
2019-03-26T13:51:14.131Z,0.00
2019-03-26T13:52:14.045Z,0.00
2019-03-26T13:53:13.859Z,0.00
2019-03-26T13:54:14.058Z,0.00
2019-03-26T13:55:13.832Z,0.00
2019-03-26T13:56:14.075Z,0.00
2019-03-26T13:57:13.811Z,0.00
2019-03-26T13:58:14.032Z,0.00
2019-03-26T13:59:13.749Z,0.00
2019-03-26T14:00:13.744Z,0.00
2019-03-26T14:01:14.025Z,0.00
2019-03-26T14:02:13.989Z,0.00
2019-03-26T14:03:13.718Z,0.00
2019-03-26T14:04:13.744Z,0.00
2019-03-26T14:05:13.728Z,0.00
2019-03-26T14:06:13.937Z,0.00
2019-03-26T14:07:13.669Z,0.00
2019-03-26T14:08:13.959Z,0.00
2019-03-26T14:09:13.910Z,0.00
2019-03-26T14:10:13.876Z,0.00
2019-03-26T14:11:13.677Z,0.00